Time;durP1;ratioP1;P1;durP2;ratioP2;P2;SDS_P1;SDS_P2;PMS_P1;PMS_P2;Temp;Humidity;BMP_temperature;BMP_pressure;BME280_temperature;BME280_humidity;BME280_pressure;Samples;Min_cycle;Max_cycle;Signal;HPM_P1;HPM_P2
2023/10/30 00:00:23;;;;;;;;;;;;;;;13.12;100.00;99394.63;4929268;29;19927;-76
2023/10/30 00:02:48;;;;;;;;;;;;;;;13.14;100.00;99389.97;4931808;29;20070;-74
2023/10/30 00:05:15;;;;;;;;;;;;;;;13.13;100.00;99393.63;4926703;29;19934;-75
2023/10/30 00:07:41;;;;;;;;;;;;;;;13.10;100.00;99389.44;4929126;29;19927;-75
2023/10/30 00:10:06;;;;;;;;;;;;;;;13.06;100.00;99384.63;4928112;29;19930;-77
2023/10/30 00:12:32;;;;;;;;;;;;;;;13.05;100.00;99389.09;4931473;29;19950;-76
2023/10/30 00:15:02;;;;;;;;;;;;;;;13.09;100.00;99400.19;4928490;29;19926;-76
2023/10/30 00:17:27;;;;;;;;;;;;;;;13.10;100.00;99396.56;4930189;29;19950;-76
2023/10/30 00:19:53;;;;;;;;;;;;;;;13.08;100.00;99398.53;4928194;29;19923;-76
2023/10/30 00:22:18;;;;;;;;;;;;;;;13.05;100.00;99399.69;4930545;29;19931;-75
2023/10/30 00:24:44;;;;;;;;;;;;;;;13.04;100.00;99399.84;4928139;29;19963;-76
2023/10/30 00:27:09;;;;;;;;;;;;;;;13.01;100.00;99387.78;4931552;29;19978;-76
2023/10/30 00:29:38;;;;;;;;;;;;;;;12.99;100.00;99391.56;4927959;29;19930;-76
2023/10/30 00:32:04;;;;;;;;;;;;;;;13.00;100.00;99380.81;4931148;29;19930;-76
2023/10/30 00:34:30;;;;;;;;;;;;;;;13.01;100.00;99381.66;4927778;29;19923;-76
2023/10/30 00:36:56;;;;;;;;;;;;;;;12.96;100.00;99373.38;4931393;29;19930;-76
2023/10/30 00:39:21;;;;;;;;;;;;;;;12.90;100.00;99374.81;4925917;29;20025;-75
2023/10/30 00:41:47;;;;;;;;;;;;;;;12.91;100.00;99367.69;4930858;29;19971;-75
2023/10/30 00:44:13;;;;;;;;;;;;;;;12.95;100.00;99361.13;4925791;29;19967;-75
2023/10/30 00:46:39;;;;;;;;;;;;;;;12.97;100.00;99365.25;4929308;29;19923;-75
2023/10/30 00:49:06;;;;;;;;;;;;;;;13.00;100.00;99361.44;4927705;29;20009;-75
2023/10/30 00:51:31;;;;;;;;;;;;;;;13.02;100.00;99362.09;4930628;29;20021;-76
2023/10/30 00:53:57;;;;;;;;;;;;;;;13.00;100.00;99349.03;4927652;29;19923;-76
2023/10/30 00:56:22;;;;;;;;;;;;;;;13.02;100.00;99354.16;4930775;29;19970;-75
2023/10/30 00:58:48;;;;;;;;;;;;;;;13.04;100.00;99354.81;4928829;29;20017;-75
2023/10/30 01:01:16;;;;;;;;;;;;;;;13.03;100.00;99363.75;4929755;29;19930;-74
2023/10/30 01:03:42;;;;;;;;;;;;;;;13.02;100.00;99352.31;4928484;29;19923;-73
2023/10/30 01:06:07;;;;;;;;;;;;;;;13.00;100.00;99348.19;4928404;29;19927;-74
2023/10/30 01:08:33;;;;;;;;;;;;;;;12.98;100.00;99339.59;4926963;29;19923;-73
2023/10/30 01:10:59;;;;;;;;;;;;;;;12.96;100.00;99336.28;4930890;29;19923;-73
2023/10/30 01:13:25;;;;;;;;;;;;;;;12.96;100.00;99337.09;4930684;29;19923;-74
2023/10/30 01:15:53;;;;;;;;;;;;;;;12.98;100.00;99340.41;4930724;29;19927;-73
2023/10/30 01:18:19;;;;;;;;;;;;;;;12.97;100.00;99335.28;4928013;29;19938;-74
2023/10/30 01:20:46;;;;;;;;;;;;;;;13.00;100.00;99324.38;4930022;29;19922;-74
2023/10/30 01:23:12;;;;;;;;;;;;;;;12.99;100.00;99320.06;4922884;29;19923;-74
2023/10/30 01:25:38;;;;;;;;;;;;;;;12.97;100.00;99327.31;4928487;29;19923;-73
2023/10/30 01:28:03;;;;;;;;;;;;;;;12.99;100.00;99323.53;4926753;29;19923;-75
2023/10/30 01:30:29;;;;;;;;;;;;;;;13.00;100.00;99329.66;4930892;29;19923;-74
2023/10/30 01:32:54;;;;;;;;;;;;;;;13.02;100.00;99317.06;4926657;29;19923;-74
2023/10/30 01:35:19;;;;;;;;;;;;;;;12.96;100.00;99320.41;4929957;29;19927;-74
2023/10/30 01:37:45;;;;;;;;;;;;;;;12.94;100.00;99314.44;4926818;29;19978;-74
2023/10/30 01:40:10;;;;;;;;;;;;;;;12.95;100.00;99321.38;4929336;29;19926;-74
2023/10/30 01:42:36;;;;;;;;;;;;;;;12.96;100.00;99317.75;4923879;29;19923;-74
2023/10/30 01:45:01;;;;;;;;;;;;;;;12.96;100.00;99315.09;4928257;29;19923;-73
2023/10/30 01:47:27;;;;;;;;;;;;;;;12.89;100.00;99309.63;4926706;29;19923;-74
2023/10/30 01:49:53;;;;;;;;;;;;;;;12.84;100.00;99305.81;4929921;29;19927;-74
2023/10/30 01:52:19;;;;;;;;;;;;;;;12.84;100.00;99306.59;4929453;29;19978;-74
2023/10/30 01:54:46;;;;;;;;;;;;;;;12.85;100.00;99308.28;4928190;29;19923;-74
2023/10/30 01:57:13;;;;;;;;;;;;;;;12.83;100.00;99304.16;4928052;29;19930;-75
2023/10/30 01:59:39;;;;;;;;;;;;;;;12.89;100.00;99306.16;4924540;29;19978;-75
2023/10/30 02:02:05;;;;;;;;;;;;;;;12.90;100.00;99305.16;4926020;29;20474;-75
2023/10/30 02:04:30;;;;;;;;;;;;;;;12.96;100.00;99309.81;4929350;29;19980;-75
2023/10/30 02:06:57;;;;;;;;;;;;;;;12.97;100.00;99303.50;4926398;29;19930;-75
2023/10/30 02:09:23;;;;;;;;;;;;;;;13.01;100.00;99307.50;4929147;29;19962;-74
2023/10/30 02:11:49;;;;;;;;;;;;;;;13.05;100.00;99314.09;4924752;29;19930;-75
2023/10/30 02:14:15;;;;;;;;;;;;;;;13.05;100.00;99298.22;4929169;29;20017;-75
2023/10/30 02:16:41;;;;;;;;;;;;;;;13.07;100.00;99305.00;4926230;29;19934;-75
2023/10/30 02:19:10;;;;;;;;;;;;;;;13.09;100.00;99303.00;4925793;29;19967;-74
2023/10/30 02:21:35;;;;;;;;;;;;;;;13.10;100.00;99290.59;4930060;29;20267;-74
2023/10/30 02:24:04;;;;;;;;;;;;;;;13.07;100.00;99297.06;4929209;29;19922;-75
2023/10/30 02:26:30;;;;;;;;;;;;;;;13.10;100.00;99290.59;4926421;29;19931;-75
2023/10/30 02:29:01;;;;;;;;;;;;;;;13.11;100.00;99292.25;4930878;29;19974;-74
2023/10/30 02:31:26;;;;;;;;;;;;;;;13.11;100.00;99303.69;4929804;29;19923;-76
2023/10/30 02:33:52;;;;;;;;;;;;;;;13.09;100.00;99302.19;4915956;29;19923;-74
2023/10/30 02:36:18;;;;;;;;;;;;;;;13.07;100.00;99294.41;4927772;29;19966;-75
2023/10/30 02:38:43;;;;;;;;;;;;;;;13.08;100.00;99287.28;4929145;29;19946;-74
2023/10/30 02:41:09;;;;;;;;;;;;;;;13.05;100.00;99288.44;4928751;29;19923;-74
2023/10/30 02:43:34;;;;;;;;;;;;;;;13.06;100.00;99287.47;4932543;29;19923;-75
2023/10/30 02:46:00;;;;;;;;;;;;;;;13.04;100.00;99285.94;4924606;29;19944;-75
2023/10/30 02:48:25;;;;;;;;;;;;;;;13.02;100.00;99283.47;4932793;29;19930;-74
2023/10/30 02:50:51;;;;;;;;;;;;;;;13.02;100.00;99272.03;4929123;29;19941;-74
2023/10/30 02:53:16;;;;;;;;;;;;;;;12.99;100.00;99272.38;4932108;29;19927;-75
2023/10/30 02:55:43;;;;;;;;;;;;;;;12.95;100.00;99281.66;4927800;29;19926;-74
2023/10/30 02:58:08;;;;;;;;;;;;;;;12.92;100.00;99271.38;4927148;29;20059;-72
2023/10/30 03:00:34;;;;;;;;;;;;;;;12.89;100.00;99277.00;4932850;29;20021;-74
2023/10/30 03:02:59;;;;;;;;;;;;;;;12.92;100.00;99271.38;4931655;29;19966;-74
2023/10/30 03:05:25;;;;;;;;;;;;;;;12.94;100.00;99274.69;4923453;29;19946;-74
2023/10/30 03:07:50;;;;;;;;;;;;;;;12.93;100.00;99278.34;4932636;29;19930;-75
2023/10/30 03:10:16;;;;;;;;;;;;;;;12.94;100.00;99290.59;4928079;29;19919;-75
2023/10/30 03:12:41;;;;;;;;;;;;;;;12.92;100.00;99296.03;4931919;29;19923;-74
2023/10/30 03:15:08;;;;;;;;;;;;;;;12.90;100.00;99297.22;4928455;29;20335;-76
2023/10/30 03:17:33;;;;;;;;;;;;;;;12.87;100.00;99303.66;4932513;29;19927;-75
2023/10/30 03:19:59;;;;;;;;;;;;;;;12.86;100.00;99295.88;4929176;29;19930;-75
2023/10/30 03:22:24;;;;;;;;;;;;;;;12.89;100.00;99303.50;4932296;29;19926;-74
2023/10/30 03:24:50;;;;;;;;;;;;;;;12.85;100.00;99305.63;4929014;29;20040;-75
2023/10/30 03:27:15;;;;;;;;;;;;;;;12.86;100.00;99309.09;4932562;29;19941;-74
2023/10/30 03:29:41;;;;;;;;;;;;;;;12.89;100.00;99308.78;4928244;29;19965;-74
2023/10/30 03:32:06;;;;;;;;;;;;;;;12.86;100.00;99309.09;4931790;29;19923;-75
2023/10/30 03:34:34;;;;;;;;;;;;;;;12.86;100.00;99302.00;4928253;29;20026;-75
2023/10/30 03:36:59;;;;;;;;;;;;;;;12.86;100.00;99290.56;4929471;29;20390;-77
2023/10/30 03:39:25;;;;;;;;;;;;;;;12.89;100.00;99292.91;4927989;29;20010;-75
2023/10/30 03:41:50;;;;;;;;;;;;;;;12.90;100.00;99297.22;4931495;29;19931;-75
2023/10/30 03:44:17;;;;;;;;;;;;;;;12.85;100.00;99289.75;4927532;29;19923;-76
2023/10/30 03:46:43;;;;;;;;;;;;;;;12.84;100.00;99290.72;4923278;29;19922;-76
2023/10/30 03:49:09;;;;;;;;;;;;;;;12.88;100.00;99297.38;4927834;29;20408;-74
2023/10/30 03:51:35;;;;;;;;;;;;;;;12.88;100.00;99297.38;4931367;29;19923;-75
2023/10/30 03:54:00;;;;;;;;;;;;;;;12.86;100.00;99295.88;4927943;29;19934;-75
2023/10/30 03:56:26;;;;;;;;;;;;;;;12.82;100.00;99302.50;4931298;29;19923;-75
2023/10/30 03:58:51;;;;;;;;;;;;;;;12.80;100.00;99307.09;4929225;29;19930;-75
2023/10/30 04:01:16;;;;;;;;;;;;;;;12.78;100.00;99314.41;4930334;29;19927;-75
2023/10/30 04:03:42;;;;;;;;;;;;;;;12.78;100.00;99302.00;4927977;29;20009;-75
2023/10/30 04:06:07;;;;;;;;;;;;;;;12.74;100.00;99290.06;4930569;29;19986;-73
2023/10/30 04:08:33;;;;;;;;;;;;;;;12.65;100.00;99275.16;4929776;29;19934;-74
2023/10/30 04:10:58;;;;;;;;;;;;;;;12.64;100.00;99270.84;4929097;29;19970;-74
2023/10/30 04:13:24;;;;;;;;;;;;;;;12.67;100.00;99263.41;4930872;29;20022;-73
2023/10/30 04:15:49;;;;;;;;;;;;;;;12.71;100.00;99272.69;4933620;29;20145;-74
2023/10/30 04:18:15;;;;;;;;;;;;;;;12.73;100.00;99276.00;4927348;29;19930;-74
2023/10/30 04:20:40;;;;;;;;;;;;;;;12.77;100.00;99273.84;4930600;29;19934;-74
2023/10/30 04:23:05;;;;;;;;;;;;;;;12.76;100.00;99281.97;4929013;29;20018;-74
2023/10/30 04:25:31;;;;;;;;;;;;;;;12.76;100.00;99287.25;4930847;29;19927;-75
2023/10/30 04:27:56;;;;;;;;;;;;;;;12.79;100.00;99292.22;4928863;29;19923;-74
2023/10/30 04:30:22;;;;;;;;;;;;;;;12.77;100.00;99295.03;4931540;29;19927;-75
2023/10/30 04:32:47;;;;;;;;;;;;;;;12.74;100.00;99282.09;4927521;29;19934;-74
2023/10/30 04:35:13;;;;;;;;;;;;;;;12.71;100.00;99278.00;4930185;29;19923;-73
2023/10/30 04:37:39;;;;;;;;;;;;;;;12.72;100.00;99287.56;4928127;29;19994;-75
2023/10/30 04:40:04;;;;;;;;;;;;;;;12.71;100.00;99296.53;4929824;29;19984;-75
2023/10/30 04:42:30;;;;;;;;;;;;;;;12.72;100.00;99292.84;4925833;29;20128;-75
2023/10/30 04:44:56;;;;;;;;;;;;;;;12.73;100.00;99293.69;4959890;23;20298;-80
2023/10/30 04:47:21;;;;;;;;;;;;;;;12.74;100.00;99295.34;4943984;29;19941;-80
2023/10/30 04:49:46;;;;;;;;;;;;;;;12.71;100.00;99279.81;4941401;29;20429;-80
2023/10/30 04:52:12;;;;;;;;;;;;;;;12.74;100.00;99279.47;4942990;29;20014;-79
2023/10/30 04:54:37;;;;;;;;;;;;;;;12.78;100.00;99279.97;4945601;29;19928;-80
2023/10/30 04:57:03;;;;;;;;;;;;;;;12.78;100.00;99267.56;4942559;29;20039;-81
2023/10/30 04:59:28;;;;;;;;;;;;;;;12.80;100.00;99270.03;4945664;29;19922;-81
2023/10/30 05:01:54;;;;;;;;;;;;;;;12.80;100.00;99262.09;4944039;29;20028;-80
2023/10/30 05:04:19;;;;;;;;;;;;;;;12.80;100.00;99251.50;4940284;29;19937;-80
2023/10/30 05:06:46;;;;;;;;;;;;;;;12.76;100.00;99239.59;4927195;29;19927;-80
2023/10/30 05:09:12;;;;;;;;;;;;;;;12.75;100.00;99233.47;4942811;29;19973;-80
2023/10/30 05:11:42;;;;;;;;;;;;;;;12.80;100.00;99246.22;4946318;29;19965;-80
2023/10/30 05:14:07;;;;;;;;;;;;;;;12.83;100.00;99246.72;4946196;29;19938;-80
2023/10/30 05:16:33;;;;;;;;;;;;;;;12.85;100.00;99254.47;4944727;29;19922;-82
2023/10/30 05:18:59;;;;;;;;;;;;;;;12.86;100.00;99253.50;4939755;29;19922;-81
2023/10/30 05:21:24;;;;;;;;;;;;;;;12.87;100.00;99263.09;4945553;29;20387;-81
2023/10/30 05:23:49;;;;;;;;;;;;;;;12.86;100.00;99250.84;4942855;29;19977;-81
2023/10/30 05:26:15;;;;;;;;;;;;;;;12.86;100.00;99242.91;4925562;29;19922;-82
2023/10/30 05:28:40;;;;;;;;;;;;;;;12.88;100.00;99254.16;4944253;29;19927;-81
2023/10/30 05:31:06;;;;;;;;;;;;;;;12.85;100.00;99244.72;4936642;29;20458;-81
2023/10/30 05:33:32;;;;;;;;;;;;;;;12.85;100.00;99238.59;4942123;29;20001;-81
2023/10/30 05:35:57;;;;;;;;;;;;;;;12.86;100.00;99237.59;4947325;29;20017;-81
2023/10/30 05:38:22;;;;;;;;;;;;;;;12.86;100.00;99229.66;4943615;29;20868;-79
2023/10/30 05:40:48;;;;;;;;;;;;;;;12.87;100.00;99224.22;4949977;29;20280;-83
2023/10/30 05:43:14;;;;;;;;;;;;;;;12.90;100.00;99231.00;4943351;29;20316;-82
2023/10/30 05:45:39;;;;;;;;;;;;;;;12.94;100.00;99227.03;4946203;29;19923;-83
2023/10/30 05:48:05;;;;;;;;;;;;;;;12.95;100.00;99228.69;4941663;29;20032;-83
2023/10/30 05:50:30;;;;;;;;;;;;;;;12.98;100.00;99217.75;4942481;29;20025;-85
2023/10/30 05:52:55;;;;;;;;;;;;;;;13.00;100.00;99215.78;4947177;29;19945;-81
2023/10/30 05:55:21;;;;;;;;;;;;;;;13.02;100.00;99203.16;4942564;29;19978;-83
2023/10/30 05:57:46;;;;;;;;;;;;;;;13.02;100.00;99192.56;4948952;29;19922;-81
2023/10/30 06:00:12;;;;;;;;;;;;;;;13.04;100.00;99190.59;4945618;29;20287;-84
2023/10/30 06:02:37;;;;;;;;;;;;;;;13.03;100.00;99194.22;4943661;29;19923;-85
2023/10/30 06:05:05;;;;;;;;;;;;;;;13.03;100.00;99199.53;4949253;29;19929;-81
2023/10/30 06:07:30;;;;;;;;;;;;;;;13.02;100.00;99203.16;4950703;29;20425;-89
2023/10/30 06:09:55;;;;;;;;;;;;;;;13.03;100.00;99199.53;4947566;29;19922;-85
2023/10/30 06:12:22;;;;;;;;;;;;;;;13.01;100.00;99201.53;4944559;29;19934;-80
2023/10/30 06:14:47;;;;;;;;;;;;;;;13.02;100.00;99208.47;4945586;29;19927;-79
2023/10/30 06:17:12;;;;;;;;;;;;;;;13.04;100.00;99206.50;4930367;29;19953;-78
2023/10/30 06:19:38;;;;;;;;;;;;;;;13.03;100.00;99204.81;4945720;29;20394;-79
2023/10/30 06:22:03;;;;;;;;;;;;;;;13.01;100.00;99206.84;4934914;29;20294;-80
2023/10/30 06:24:31;;;;;;;;;;;;;;;12.99;100.00;99203.53;4945238;29;20046;-76
2023/10/30 06:26:56;;;;;;;;;;;;;;;12.97;100.00;99195.72;4950321;29;19922;-79
2023/10/30 06:29:21;;;;;;;;;;;;;;;12.98;100.00;99193.91;4950170;29;20343;-79
2023/10/30 06:31:47;;;;;;;;;;;;;;;12.96;100.00;99187.97;4944573;29;19927;-79
2023/10/30 06:34:12;;;;;;;;;;;;;;;12.92;100.00;99197.22;4944312;29;19974;-80
2023/10/30 06:36:38;;;;;;;;;;;;;;;12.96;100.00;99191.41;4943720;29;19922;-78
2023/10/30 06:39:04;;;;;;;;;;;;;;;12.97;100.00;99194.91;4947694;29;19923;-77
2023/10/30 06:41:29;;;;;;;;;;;;;;;13.00;100.00;99197.22;4933879;29;19922;-77
2023/10/30 06:43:55;;;;;;;;;;;;;;;13.02;100.00;99198.69;4950612;29;19930;-78
2023/10/30 06:46:20;;;;;;;;;;;;;;;13.01;100.00;99202.38;4941880;29;19926;-78
2023/10/30 06:48:46;;;;;;;;;;;;;;;13.02;100.00;99188.09;4949332;29;20383;-77
2023/10/30 06:51:11;;;;;;;;;;;;;;;13.01;100.00;99185.66;4946791;29;20017;-76
2023/10/30 06:53:36;;;;;;;;;;;;;;;13.04;100.00;99207.31;4947386;29;19922;-78
2023/10/30 06:56:02;;;;;;;;;;;;;;;13.07;100.00;99211.47;4941732;29;20423;-79
2023/10/30 06:58:27;;;;;;;;;;;;;;;13.07;100.00;99201.72;4944923;29;19931;-77
2023/10/30 07:00:59;;;;;;;;;;;;;;;13.04;100.00;99202.03;4945182;29;19927;-75
2023/10/30 07:03:25;;;;;;;;;;;;;;;13.00;100.00;99199.88;4946116;29;19994;-76
2023/10/30 07:05:50;;;;;;;;;;;;;;;12.97;100.00;99202.84;4946177;29;20466;-77
2023/10/30 07:08:17;;;;;;;;;;;;;;;12.96;100.00;99207.31;4943849;29;19926;-78
2023/10/30 07:10:42;;;;;;;;;;;;;;;13.01;100.00;99206.84;4947456;29;19918;-76
2023/10/30 07:13:08;;;;;;;;;;;;;;;13.03;100.00;99210.97;4946378;29;20025;-76
2023/10/30 07:15:33;;;;;;;;;;;;;;;13.02;100.00;99204.00;4948095;29;20394;-77
2023/10/30 07:17:59;;;;;;;;;;;;;;;13.03;100.00;99215.44;4933986;29;19930;-77
2023/10/30 07:20:24;;;;;;;;;;;;;;;13.03;100.00;99216.25;4943256;29;19933;-75
2023/10/30 07:22:49;;;;;;;;;;;;;;;13.05;100.00;99208.97;4948466;29;19949;-77
2023/10/30 07:25:15;;;;;;;;;;;;;;;13.07;100.00;99211.47;4946965;29;19929;-77
2023/10/30 07:27:40;;;;;;;;;;;;;;;13.10;100.00;99205.81;4947598;29;19926;-77
2023/10/30 07:30:08;;;;;;;;;;;;;;;13.12;100.00;99206.53;4946671;29;20302;-77
2023/10/30 07:32:33;;;;;;;;;;;;;;;13.09;100.00;99198.88;4948469;29;19929;-77
2023/10/30 07:35:05;;;;;;;;;;;;;;;13.08;100.00;99199.84;4928074;29;19923;-79
2023/10/30 07:37:30;;;;;;;;;;;;;;;13.08;100.00;99197.22;4934435;29;19923;-79
2023/10/30 07:39:58;;;;;;;;;;;;;;;13.10;100.00;99200.53;4944727;29;20014;-81
2023/10/30 07:42:24;;;;;;;;;;;;;;;13.07;100.00;99192.94;4949371;29;19930;-79
2023/10/30 07:44:50;;;;;;;;;;;;;;;13.04;100.00;99201.19;4951935;28;19937;-79
2023/10/30 07:47:15;;;;;;;;;;;;;;;13.03;100.00;99205.66;4946832;29;19970;-78
2023/10/30 07:49:41;;;;;;;;;;;;;;;13.04;100.00;99201.19;4947895;29;19937;-80
2023/10/30 07:52:06;;;;;;;;;;;;;;;13.03;100.00;99191.59;4946351;29;19931;-83
2023/10/30 07:54:32;;;;;;;;;;;;;;;13.04;100.00;99185.31;4947624;29;19974;-81
2023/10/30 07:56:58;;;;;;;;;;;;;;;13.07;100.00;99190.28;4946039;29;19930;-78
2023/10/30 07:59:24;;;;;;;;;;;;;;;13.07;100.00;99190.28;4926740;29;20002;-81
2023/10/30 08:01:50;;;;;;;;;;;;;;;12.97;100.00;99205.50;4947843;29;20013;-84
2023/10/30 08:04:16;;;;;;;;;;;;;;;12.98;100.00;99192.09;4945812;29;19923;-79
2023/10/30 08:06:41;;;;;;;;;;;;;;;12.92;100.00;99189.28;4943476;29;19934;-81
2023/10/30 08:09:08;;;;;;;;;;;;;;;12.94;100.00;99180.19;4944161;29;19934;-81
2023/10/30 08:11:36;;;;;;;;;;;;;;;12.94;100.00;99179.34;4943299;29;20026;-81
2023/10/30 08:14:02;;;;;;;;;;;;;;;12.95;100.00;99175.72;4945373;29;19930;-81
2023/10/30 08:16:27;;;;;;;;;;;;;;;12.94;100.00;99176.72;4943087;29;20600;-82
2023/10/30 08:18:52;;;;;;;;;;;;;;;12.99;100.00;99177.03;4946737;29;20379;-80
2023/10/30 08:21:18;;;;;;;;;;;;;;;12.98;100.00;99175.38;4947938;29;20013;-82
2023/10/30 08:23:43;;;;;;;;;;;;;;;12.93;100.00;99167.09;4944010;29;19922;-81
2023/10/30 08:26:08;;;;;;;;;;;;;;;12.98;100.00;99165.59;4943753;28;20063;-81
2023/10/30 08:28:35;;;;;;;;;;;;;;;13.01;100.00;99151.22;4944378;29;19923;-82
2023/10/30 08:31:01;;;;;;;;;;;;;;;13.00;100.00;99162.81;4944203;29;19930;-83
2023/10/30 08:33:26;;;;;;;;;;;;;;;13.01;100.00;99164.47;4942313;29;19926;-82
2023/10/30 08:35:54;;;;;;;;;;;;;;;12.98;100.00;99164.78;4945765;29;21577;-82
2023/10/30 08:38:19;;;;;;;;;;;;;;;13.00;100.00;99154.84;4944180;29;20044;-82
2023/10/30 08:40:44;;;;;;;;;;;;;;;13.01;100.00;99143.28;4947103;29;19929;-82
2023/10/30 08:43:10;;;;;;;;;;;;;;;13.05;100.00;99129.50;4941240;29;19934;-82
2023/10/30 08:45:35;;;;;;;;;;;;;;;13.10;100.00;99126.34;4929430;29;19926;-83
2023/10/30 08:48:00;;;;;;;;;;;;;;;13.13;100.00;99131.38;4944261;29;20390;-84
2023/10/30 08:50:26;;;;;;;;;;;;;;;13.15;100.00;99134.66;4946212;29;19926;-81
2023/10/30 08:52:51;;;;;;;;;;;;;;;13.15;100.00;99131.16;4936319;29;19937;-79
2023/10/30 08:55:17;;;;;;;;;;;;;;;13.15;100.00;99149.72;4916042;29;19926;-83
2023/10/30 08:57:42;;;;;;;;;;;;;;;13.13;100.00;99136.66;4941276;29;20006;-83
2023/10/30 09:00:08;;;;;;;;;;;;;;;13.14;100.00;99125.03;4943057;29;20222;-82
2023/10/30 09:02:34;;;;;;;;;;;;;;;13.15;100.00;99144.41;4934342;29;20363;-82
2023/10/30 09:04:59;;;;;;;;;;;;;;;13.13;100.00;99147.25;4938194;29;19930;-83
2023/10/30 09:07:24;;;;;;;;;;;;;;;13.08;100.00;99131.81;4946389;29;19927;-82
2023/10/30 09:09:50;;;;;;;;;;;;;;;13.09;100.00;99122.03;4944984;29;19938;-82
2023/10/30 09:12:15;;;;;;;;;;;;;;;13.13;100.00;99120.75;4941158;29;19967;-83
2023/10/30 09:14:41;;;;;;;;;;;;;;;13.15;100.00;99118.75;4944261;29;20327;-83
2023/10/30 09:17:08;;;;;;;;;;;;;;;13.12;100.00;99108.50;4942627;29;20296;-81
2023/10/30 09:19:37;;;;;;;;;;;;;;;13.12;100.00;99103.22;4946448;29;19926;-82
2023/10/30 09:22:03;;;;;;;;;;;;;;;13.11;100.00;99096.22;4947688;29;20302;-82
2023/10/30 09:24:28;;;;;;;;;;;;;;;13.19;100.00;99082.16;4946242;29;20010;-82
2023/10/30 09:26:54;;;;;;;;;;;;;;;13.18;100.00;99075.22;4950506;29;19923;-83
2023/10/30 09:29:19;;;;;;;;;;;;;;;13.20;100.00;99074.03;4942854;29;19923;-84
2023/10/30 09:31:44;;;;;;;;;;;;;;;13.22;100.00;99079.16;4947092;29;19923;-82
2023/10/30 09:34:11;;;;;;;;;;;;;;;13.21;100.00;99073.03;4945254;29;19923;-82
2023/10/30 09:36:36;;;;;;;;;;;;;;;13.25;100.00;99066.41;4941419;29;19955;-83
2023/10/30 09:39:01;;;;;;;;;;;;;;;13.23;100.00;99065.75;4950718;28;19999;-82
2023/10/30 09:41:27;;;;;;;;;;;;;;;13.28;100.00;99054.63;4957527;29;19918;-83
2023/10/30 09:43:53;;;;;;;;;;;;;;;13.29;100.00;99051.81;4939536;29;20381;-82
2023/10/30 09:46:25;;;;;;;;;;;;;;;13.30;100.00;99052.66;4957130;29;20017;-83
2023/10/30 09:48:50;;;;;;;;;;;;;;;13.30;100.00;99047.34;4954861;29;20013;-83
2023/10/30 09:51:17;;;;;;;;;;;;;;;13.31;100.00;99033.09;4950472;29;20028;-83
2023/10/30 09:53:42;;;;;;;;;;;;;;;13.35;100.00;99037.06;4945162;29;19923;-83
2023/10/30 09:56:08;;;;;;;;;;;;;;;13.35;100.00;99032.56;4948670;29;19918;-82
2023/10/30 09:58:34;;;;;;;;;;;;;;;13.38;100.00;99037.53;4961664;29;19923;-80
2023/10/30 10:01:00;;;;;;;;;;;;;;;13.41;100.00;99034.53;4953440;29;19986;-83
2023/10/30 10:03:26;;;;;;;;;;;;;;;13.42;100.00;99041.50;4949249;29;19982;-83
2023/10/30 10:05:55;;;;;;;;;;;;;;;13.44;100.00;99049.25;4949593;29;19978;-82
2023/10/30 10:08:21;;;;;;;;;;;;;;;13.42;100.00;99036.19;4957126;29;20965;-83
2023/10/30 10:10:52;;;;;;;;;;;;;;;13.36;100.00;99036.88;4953955;29;19927;-83
2023/10/30 10:13:18;;;;;;;;;;;;;;;13.38;100.00;99020.78;4946496;29;19991;-83
2023/10/30 10:15:43;;;;;;;;;;;;;;;13.39;100.00;99014.50;4953449;29;19927;-84
2023/10/30 10:18:21;;;;;;;;;;;;;;;13.36;100.00;99018.34;4958761;29;19961;-83
2023/10/30 10:20:54;;;;;;;;;;;;;;;13.40;100.00;99016.97;4933045;29;19957;-82
2023/10/30 10:23:20;;;;;;;;;;;;;;;13.42;100.00;99020.28;4958496;29;20018;-83
2023/10/30 10:25:52;;;;;;;;;;;;;;;13.42;100.00;99004.38;4956915;29;19922;-83
2023/10/30 10:28:17;;;;;;;;;;;;;;;13.36;100.00;98994.47;4955659;29;20912;-84
2023/10/30 10:30:43;;;;;;;;;;;;;;;13.39;100.00;98999.41;4943384;29;19922;-83
2023/10/30 10:33:08;;;;;;;;;;;;;;;13.39;100.00;98993.28;4940928;29;19923;-83
2023/10/30 10:35:35;;;;;;;;;;;;;;;13.41;100.00;99008.03;4943439;29;19929;-81
2023/10/30 10:38:11;;;;;;;;;;;;;;;13.43;100.00;99000.72;4942282;29;20403;-80
2023/10/30 10:40:37;;;;;;;;;;;;;;;13.36;100.00;98994.47;4939116;29;19954;-81
2023/10/30 10:43:04;;;;;;;;;;;;;;;13.37;100.00;98988.16;4929160;29;19923;-80
2023/10/30 10:45:30;;;;;;;;;;;;;;;13.40;100.00;98963.16;4944003;29;20467;-81
2023/10/30 10:47:56;;;;;;;;;;;;;;;13.43;100.00;98945.06;4944868;29;19978;-81
2023/10/30 10:50:21;;;;;;;;;;;;;;;13.47;100.00;98942.91;4941937;29;20350;-81
2023/10/30 10:52:48;;;;;;;;;;;;;;;13.49;100.00;98930.28;4946957;29;20338;-80
2023/10/30 10:55:18;;;;;;;;;;;;;;;13.51;100.00;98918.50;4945366;29;19930;-81
2023/10/30 10:57:58;;;;;;;;;;;;;;;13.52;100.00;98903.44;4944727;29;19970;-81
2023/10/30 11:00:28;;;;;;;;;;;;;;;13.51;100.00;98910.56;4946178;29;19989;-80
2023/10/30 11:02:56;;;;;;;;;;;;;;;13.59;100.00;98898.25;4942880;29;19930;-80
2023/10/30 11:05:29;;;;;;;;;;;;;;;13.57;100.00;98894.94;4946220;29;20734;-80
2023/10/30 11:08:13;;;;;;;;;;;;;;;13.57;100.00;98905.53;4945308;29;19962;-81
2023/10/30 11:10:42;;;;;;;;;;;;;;;13.57;100.00;98905.53;4942380;29;19927;-81
2023/10/30 11:13:14;;;;;;;;;;;;;;;13.50;100.00;98892.16;4947464;28;19930;-81
2023/10/30 11:16:08;;;;;;;;;;;;;;;13.49;100.00;98888.69;4945255;29;20033;-81
2023/10/30 11:18:34;;;;;;;;;;;;;;;13.47;100.00;98889.91;4936264;29;19929;-81
2023/10/30 11:21:12;;;;;;;;;;;;;;;13.42;100.00;98882.47;4930264;29;19923;-81
2023/10/30 11:23:44;;;;;;;;;;;;;;;13.49;100.00;98887.88;4948527;29;19930;-78
2023/10/30 11:26:29;;;;;;;;;;;;;;;13.49;100.00;98878.09;4943797;29;19977;-79
2023/10/30 11:28:57;;;;;;;;;;;;;;;13.49;100.00;98880.75;4924865;29;19922;-79
2023/10/30 11:31:24;;;;;;;;;;;;;;;13.49;100.00;98894.00;4946985;29;19923;-81
2023/10/30 11:33:49;;;;;;;;;;;;;;;13.49;100.00;98877.25;4949254;29;19922;-81
2023/10/30 11:36:14;;;;;;;;;;;;;;;13.47;100.00;98866.88;4943687;29;19930;-80
2023/10/30 11:38:52;;;;;;;;;;;;;;;13.51;100.00;98876.09;4946866;29;19930;-79
2023/10/30 11:41:17;;;;;;;;;;;;;;;13.51;100.00;98865.50;4945155;29;20018;-81
2023/10/30 11:43:44;;;;;;;;;;;;;;;13.53;100.00;98873.28;4948114;29;19962;-80
2023/10/30 11:46:12;;;;;;;;;;;;;;;13.56;100.00;98872.91;4944549;29;19922;-81
2023/10/30 11:48:37;;;;;;;;;;;;;;;13.57;100.00;98873.72;4947919;29;20396;-81
2023/10/30 11:51:03;;;;;;;;;;;;;;;13.52;100.00;98871.63;4946205;29;19927;-81
2023/10/30 11:53:28;;;;;;;;;;;;;;;13.55;100.00;98875.75;4945484;29;19939;-80
2023/10/30 11:55:54;;;;;;;;;;;;;;;13.49;100.00;98878.09;4945494;29;19922;-82
2023/10/30 11:58:20;;;;;;;;;;;;;;;13.49;100.00;98877.25;4944548;29;19933;-82
2023/10/30 12:00:46;;;;;;;;;;;;;;;13.44;100.00;98869.84;4943777;29;19966;-81
2023/10/30 12:03:12;;;;;;;;;;;;;;;13.40;100.00;98855.31;4925818;29;19926;-81
2023/10/30 12:05:38;;;;;;;;;;;;;;;13.42;100.00;98850.69;4948444;29;19929;-82
2023/10/30 12:08:04;;;;;;;;;;;;;;;13.44;100.00;98842.53;4254197;29;10020807;-80
2023/10/30 12:10:33;;;;;;;;;;;;;;;13.49;100.00;98826.91;4943458;29;19946;-82
2023/10/30 12:12:59;;;;;;;;;;;;;;;13.51;100.00;98820.44;4941549;29;19926;-79
2023/10/30 12:15:28;;;;;;;;;;;;;;;13.49;100.00;98803.88;4602444;29;10000825;-85
2023/10/30 12:17:53;;;;;;;;;;;;;;;13.54;100.00;98779.50;4943328;29;19919;-80
2023/10/30 12:20:19;;;;;;;;;;;;;;;13.58;100.00;98775.47;4949147;29;20463;-80
2023/10/30 12:22:46;;;;;;;;;;;;;;;13.60;100.00;98754.94;4945019;29;19938;-80
2023/10/30 12:25:15;;;;;;;;;;;;;;;13.64;100.00;98742.13;4942956;29;19926;-81
2023/10/30 12:27:41;;;;;;;;;;;;;;;13.68;100.00;98722.19;4945806;29;19923;-81
2023/10/30 12:30:13;;;;;;;;;;;;;;;13.70;100.00;98714.88;4943469;29;20373;-80